sensor_id;sensor_type;location;lat;lon;timestamp;pressure;altitude;pressure_sealevel;temperature;humidity
57600;BME280;43426;43.594;24.334;2024-03-29T00:00:24;100729.91;;;7.14;100.00
57600;BME280;43426;43.594;24.334;2024-03-29T00:02:50;100727.47;;;6.93;100.00
57600;BME280;43426;43.594;24.334;2024-03-29T00:05:15;100723.91;;;7.02;100.00
57600;BME280;43426;43.594;24.334;2024-03-29T00:07:41;100743.84;;;6.90;100.00
57600;BME280;43426;43.594;24.334;2024-03-29T00:10:06;100721.19;;;6.64;100.00
57600;BME280;43426;43.594;24.334;2024-03-29T00:12:32;100753.91;;;6.78;100.00
57600;BME280;43426;43.594;24.334;2024-03-29T00:14:57;100715.25;;;6.71;100.00
57600;BME280;43426;43.594;24.334;2024-03-29T00:17:23;100743.09;;;6.97;100.00
57600;BME280;43426;43.594;24.334;2024-03-29T00:19:48;100756.19;;;7.10;100.00
57600;BME280;43426;43.594;24.334;2024-03-29T00:22:14;100726.75;;;7.01;100.00
57600;BME280;43426;43.594;24.334;2024-03-29T00:24:39;100757.69;;;7.23;100.00
57600;BME280;43426;43.594;24.334;2024-03-29T00:27:05;100737.47;;;6.91;100.00
57600;BME280;43426;43.594;24.334;2024-03-29T00:29:30;100725.84;;;6.72;100.00
57600;BME280;43426;43.594;24.334;2024-03-29T00:31:56;100758.06;;;6.62;100.00
57600;BME280;43426;43.594;24.334;2024-03-29T00:34:22;100714.94;;;6.36;100.00
57600;BME280;43426;43.594;24.334;2024-03-29T00:36:48;100746.94;;;6.47;100.00
57600;BME280;43426;43.594;24.334;2024-03-29T00:39:13;100752.09;;;6.69;100.00
57600;BME280;43426;43.594;24.334;2024-03-29T00:41:38;100751.66;;;6.83;100.00
57600;BME280;43426;43.594;24.334;2024-03-29T00:44:04;100745.72;;;6.79;100.00
57600;BME280;43426;43.594;24.334;2024-03-29T00:46:29;100745.06;;;6.68;100.00
57600;BME280;43426;43.594;24.334;2024-03-29T00:48:55;100761.44;;;6.55;100.00
57600;BME280;43426;43.594;24.334;2024-03-29T00:51:20;100737.97;;;6.19;100.00
57600;BME280;43426;43.594;24.334;2024-03-29T00:53:46;100754.28;;;6.16;100.00
57600;BME280;43426;43.594;24.334;2024-03-29T00:56:11;100764.31;;;6.14;100.00
57600;BME280;43426;43.594;24.334;2024-03-29T00:58:37;100766.16;;;6.13;100.00
57600;BME280;43426;43.594;24.334;2024-03-29T01:01:02;100743.34;;;6.00;100.00
57600;BME280;43426;43.594;24.334;2024-03-29T01:03:28;100758.28;;;6.12;100.00
57600;BME280;43426;43.594;24.334;2024-03-29T01:05:56;100780.81;;;6.29;100.00
57600;BME280;43426;43.594;24.334;2024-03-29T01:08:22;100754.28;;;6.16;100.00
57600;BME280;43426;43.594;24.334;2024-03-29T01:10:49;100747.00;;;5.99;100.00
57600;BME280;43426;43.594;24.334;2024-03-29T01:13:14;100759.13;;;6.03;100.00
57600;BME280;43426;43.594;24.334;2024-03-29T01:15:40;100785.31;;;6.09;100.00
57600;BME280;43426;43.594;24.334;2024-03-29T01:18:05;100785.06;;;6.12;100.00
57600;BME280;43426;43.594;24.334;2024-03-29T01:20:31;100765.44;;;6.02;100.00
57600;BME280;43426;43.594;24.334;2024-03-29T01:22:56;100788.56;;;6.22;100.00
57600;BME280;43426;43.594;24.334;2024-03-29T01:25:22;100797.59;;;6.21;100.00
57600;BME280;43426;43.594;24.334;2024-03-29T01:27:49;100778.28;;;6.08;100.00
57600;BME280;43426;43.594;24.334;2024-03-29T01:30:15;100775.72;;;6.06;100.00
57600;BME280;43426;43.594;24.334;2024-03-29T01:32:40;100805.63;;;6.21;100.00
57600;BME280;43426;43.594;24.334;2024-03-29T01:35:06;100812.25;;;6.17;100.00
57600;BME280;43426;43.594;24.334;2024-03-29T01:37:31;100806.75;;;6.09;100.00
57600;BME280;43426;43.594;24.334;2024-03-29T01:39:57;100820.28;;;6.07;100.00
57600;BME280;43426;43.594;24.334;2024-03-29T01:42:22;100797.69;;;5.90;100.00
57600;BME280;43426;43.594;24.334;2024-03-29T01:44:48;100837.91;;;6.10;100.00
57600;BME280;43426;43.594;24.334;2024-03-29T01:47:14;100819.41;;;5.87;100.00
57600;BME280;43426;43.594;24.334;2024-03-29T01:49:39;100819.94;;;5.91;100.00
57600;BME280;43426;43.594;24.334;2024-03-29T01:52:06;100844.69;;;6.04;100.00
57600;BME280;43426;43.594;24.334;2024-03-29T01:54:31;100846.53;;;6.04;100.00
57600;BME280;43426;43.594;24.334;2024-03-29T01:56:57;100849.75;;;6.07;100.00
57600;BME280;43426;43.594;24.334;2024-03-29T01:59:23;100848.19;;;6.05;100.00
57600;BME280;43426;43.594;24.334;2024-03-29T02:01:51;100857.25;;;6.04;100.00
57600;BME280;43426;43.594;24.334;2024-03-29T02:04:16;100843.38;;;5.89;100.00
57600;BME280;43426;43.594;24.334;2024-03-29T02:06:42;100843.66;;;5.86;100.00
57600;BME280;43426;43.594;24.334;2024-03-29T02:09:08;100808.75;;;5.56;100.00
57600;BME280;43426;43.594;24.334;2024-03-29T02:11:34;100859.72;;;5.86;100.00
57600;BME280;43426;43.594;24.334;2024-03-29T02:14:00;100867.31;;;5.90;100.00
57600;BME280;43426;43.594;24.334;2024-03-29T02:16:26;100848.81;;;5.68;100.00
57600;BME280;43426;43.594;24.334;2024-03-29T02:18:51;100857.25;;;5.73;100.00
57600;BME280;43426;43.594;24.334;2024-03-29T02:21:17;100883.38;;;5.80;100.00
57600;BME280;43426;43.594;24.334;2024-03-29T02:23:47;100888.13;;;5.77;100.00
57600;BME280;43426;43.594;24.334;2024-03-29T02:26:16;100892.66;;;5.76;100.00
57600;BME280;43426;43.594;24.334;2024-03-29T02:28:41;100871.50;;;5.63;100.00
57600;BME280;43426;43.594;24.334;2024-03-29T02:31:07;100896.25;;;5.56;100.00
57600;BME280;43426;43.594;24.334;2024-03-29T02:33:33;100886.53;;;5.24;100.00
57600;BME280;43426;43.594;24.334;2024-03-29T02:35:59;100895.06;;;5.18;100.00
57600;BME280;43426;43.594;24.334;2024-03-29T02:38:24;100881.94;;;5.15;100.00
57600;BME280;43426;43.594;24.334;2024-03-29T02:40:50;100870.59;;;5.22;100.00
57600;BME280;43426;43.594;24.334;2024-03-29T02:43:15;100894.41;;;5.25;100.00
57600;BME280;43426;43.594;24.334;2024-03-29T02:45:41;100874.66;;;5.17;100.00
57600;BME280;43426;43.594;24.334;2024-03-29T02:48:06;100884.50;;;5.16;100.00
57600;BME280;43426;43.594;24.334;2024-03-29T02:50:32;100906.22;;;5.23;100.00
57600;BME280;43426;43.594;24.334;2024-03-29T02:52:57;100914.56;;;5.29;100.00
57600;BME280;43426;43.594;24.334;2024-03-29T02:55:23;100894.69;;;5.22;100.00
57600;BME280;43426;43.594;24.334;2024-03-29T02:57:48;100924.84;;;5.34;100.00
57600;BME280;43426;43.594;24.334;2024-03-29T03:00:14;100937.59;;;5.42;100.00
57600;BME280;43426;43.594;24.334;2024-03-29T03:02:40;100903.41;;;5.24;100.00
57600;BME280;43426;43.594;24.334;2024-03-29T03:05:07;100927.03;;;5.40;100.00
57600;BME280;43426;43.594;24.334;2024-03-29T03:07:32;100933.88;;;5.33;100.00
57600;BME280;43426;43.594;24.334;2024-03-29T03:10:16;100930.03;;;5.26;100.00
57600;BME280;43426;43.594;24.334;2024-03-29T03:13:00;100891.44;;;4.98;100.00
57600;BME280;43426;43.594;24.334;2024-03-29T03:15:26;100956.31;;;5.42;100.00
57600;BME280;43426;43.594;24.334;2024-03-29T03:17:51;100919.22;;;5.06;100.00
57600;BME280;43426;43.594;24.334;2024-03-29T03:20:17;100963.13;;;5.25;100.00
57600;BME280;43426;43.594;24.334;2024-03-29T03:22:43;100980.28;;;5.22;100.00
57600;BME280;43426;43.594;24.334;2024-03-29T03:25:08;100968.91;;;5.09;100.00
57600;BME280;43426;43.594;24.334;2024-03-29T03:27:34;100970.28;;;5.03;100.00
57600;BME280;43426;43.594;24.334;2024-03-29T03:29:59;100957.81;;;4.92;100.00
57600;BME280;43426;43.594;24.334;2024-03-29T03:32:25;100986.00;;;4.97;100.00
57600;BME280;43426;43.594;24.334;2024-03-29T03:34:50;100953.53;;;4.69;100.00
57600;BME280;43426;43.594;24.334;2024-03-29T03:37:16;100931.81;;;4.62;100.00
57600;BME280;43426;43.594;24.334;2024-03-29T03:39:41;100983.84;;;4.90;100.00
57600;BME280;43426;43.594;24.334;2024-03-29T03:42:07;101000.19;;;5.08;100.00
57600;BME280;43426;43.594;24.334;2024-03-29T03:44:32;100978.09;;;4.95;100.00
57600;BME280;43426;43.594;24.334;2024-03-29T03:46:58;100983.25;;;4.87;100.00
57600;BME280;43426;43.594;24.334;2024-03-29T03:49:23;100958.88;;;4.69;100.00
57600;BME280;43426;43.594;24.334;2024-03-29T03:51:49;101004.75;;;4.85;100.00
57600;BME280;43426;43.594;24.334;2024-03-29T03:54:14;100972.34;;;4.46;100.00
57600;BME280;43426;43.594;24.334;2024-03-29T03:56:40;101009.91;;;4.77;100.00
57600;BME280;43426;43.594;24.334;2024-03-29T03:59:05;101018.88;;;4.76;100.00
57600;BME280;43426;43.594;24.334;2024-03-29T04:01:31;101020.59;;;4.77;100.00
57600;BME280;43426;43.594;24.334;2024-03-29T04:03:56;100988.94;;;4.50;100.00
57600;BME280;43426;43.594;24.334;2024-03-29T04:06:22;101024.75;;;4.70;100.00
57600;BME280;43426;43.594;24.334;2024-03-29T04:08:47;101023.16;;;4.67;100.00
57600;BME280;43426;43.594;24.334;2024-03-29T04:11:13;101030.81;;;4.72;100.00
57600;BME280;43426;43.594;24.334;2024-03-29T04:13:39;101041.25;;;4.75;100.00
57600;BME280;43426;43.594;24.334;2024-03-29T04:16:06;101033.13;;;4.65;100.00
57600;BME280;43426;43.594;24.334;2024-03-29T04:18:33;101036.78;;;4.64;100.00
57600;BME280;43426;43.594;24.334;2024-03-29T04:21:00;101049.38;;;4.73;100.00
57600;BME280;43426;43.594;24.334;2024-03-29T04:23:25;101059.53;;;4.58;100.00
57600;BME280;43426;43.594;24.334;2024-03-29T04:26:00;101068.25;;;4.60;100.00
57600;BME280;43426;43.594;24.334;2024-03-29T04:28:26;101076.53;;;4.57;100.00
57600;BME280;43426;43.594;24.334;2024-03-29T04:30:59;101088.31;;;4.55;100.00
57600;BME280;43426;43.594;24.334;2024-03-29T04:33:25;101096.44;;;4.53;100.00
57600;BME280;43426;43.594;24.334;2024-03-29T04:35:58;101084.06;;;4.52;100.00
57600;BME280;43426;43.594;24.334;2024-03-29T04:38:25;101068.28;;;4.49;100.00
57600;BME280;43426;43.594;24.334;2024-03-29T04:40:52;101107.38;;;4.62;100.00
57600;BME280;43426;43.594;24.334;2024-03-29T04:43:18;101079.69;;;4.40;100.00
57600;BME280;43426;43.594;24.334;2024-03-29T04:45:44;101111.75;;;4.63;100.00
57600;BME280;43426;43.594;24.334;2024-03-29T04:48:10;101090.00;;;4.56;100.00
57600;BME280;43426;43.594;24.334;2024-03-29T04:50:35;101093.03;;;4.74;100.00
57600;BME280;43426;43.594;24.334;2024-03-29T04:53:01;101108.81;;;4.77;100.00
57600;BME280;43426;43.594;24.334;2024-03-29T04:55:26;101129.72;;;4.60;100.00
57600;BME280;43426;43.594;24.334;2024-03-29T04:57:52;101120.22;;;4.68;100.00
57600;BME280;43426;43.594;24.334;2024-03-29T05:00:18;101143.38;;;5.13;100.00
57600;BME280;43426;43.594;24.334;2024-03-29T05:02:43;101148.16;;;5.41;100.00
57600;BME280;43426;43.594;24.334;2024-03-29T05:05:09;101148.66;;;5.68;100.00
57600;BME280;43426;43.594;24.334;2024-03-29T05:07:34;101142.91;;;5.72;100.00
57600;BME280;43426;43.594;24.334;2024-03-29T05:10:00;101156.09;;;5.85;100.00
57600;BME280;43426;43.594;24.334;2024-03-29T05:12:25;101110.19;;;6.11;100.00
57600;BME280;43426;43.594;24.334;2024-03-29T05:14:51;101158.97;;;6.67;100.00
57600;BME280;43426;43.594;24.334;2024-03-29T05:17:16;101145.19;;;6.81;100.00
57600;BME280;43426;43.594;24.334;2024-03-29T05:19:43;101155.16;;;7.10;100.00
57600;BME280;43426;43.594;24.334;2024-03-29T05:22:08;101155.75;;;7.53;100.00
57600;BME280;43426;43.594;24.334;2024-03-29T05:24:34;101149.84;;;7.78;100.00
57600;BME280;43426;43.594;24.334;2024-03-29T05:26:59;101151.84;;;8.33;100.00
57600;BME280;43426;43.594;24.334;2024-03-29T05:29:25;101126.06;;;8.41;100.00
57600;BME280;43426;43.594;24.334;2024-03-29T05:31:50;101163.88;;;9.05;100.00
57600;BME280;43426;43.594;24.334;2024-03-29T05:34:16;101169.88;;;9.44;99.69
57600;BME280;43426;43.594;24.334;2024-03-29T05:36:41;101155.38;;;9.63;98.96
57600;BME280;43426;43.594;24.334;2024-03-29T05:39:07;101150.25;;;9.96;96.66
57600;BME280;43426;43.594;24.334;2024-03-29T05:41:32;101169.81;;;10.43;95.62
57600;BME280;43426;43.594;24.334;2024-03-29T05:43:58;101154.34;;;10.53;95.14
57600;BME280;43426;43.594;24.334;2024-03-29T05:46:23;101169.25;;;11.00;94.12
57600;BME280;43426;43.594;24.334;2024-03-29T05:48:49;101173.81;;;11.07;92.77
57600;BME280;43426;43.594;24.334;2024-03-29T05:51:14;101153.56;;;11.12;91.41
57600;BME280;43426;43.594;24.334;2024-03-29T05:53:40;101170.56;;;11.63;88.77
57600;BME280;43426;43.594;24.334;2024-03-29T05:56:06;101172.59;;;11.86;88.99
57600;BME280;43426;43.594;24.334;2024-03-29T05:58:36;101163.66;;;12.10;87.47
57600;BME280;43426;43.594;24.334;2024-03-29T06:01:01;101170.50;;;12.54;85.88
57600;BME280;43426;43.594;24.334;2024-03-29T06:03:27;101173.19;;;12.70;83.59
57600;BME280;43426;43.594;24.334;2024-03-29T06:05:53;101149.94;;;12.84;84.25
57600;BME280;43426;43.594;24.334;2024-03-29T06:08:19;101155.97;;;13.26;85.01
57600;BME280;43426;43.594;24.334;2024-03-29T06:10:46;101152.25;;;13.58;83.15
57600;BME280;43426;43.594;24.334;2024-03-29T06:13:11;101137.13;;;14.02;82.38
57600;BME280;43426;43.594;24.334;2024-03-29T06:15:57;101162.19;;;14.57;79.29
57600;BME280;43426;43.594;24.334;2024-03-29T06:18:41;101175.41;;;15.05;75.40
57600;BME280;43426;43.594;24.334;2024-03-29T06:21:07;101155.25;;;15.00;74.66
57600;BME280;43426;43.594;24.334;2024-03-29T06:23:33;101156.25;;;15.13;75.41
57600;BME280;43426;43.594;24.334;2024-03-29T06:25:58;101169.69;;;15.58;76.39
57600;BME280;43426;43.594;24.334;2024-03-29T06:28:24;101168.19;;;15.92;72.11
57600;BME280;43426;43.594;24.334;2024-03-29T06:30:49;101184.03;;;16.10;71.56
57600;BME280;43426;43.594;24.334;2024-03-29T06:33:14;101153.09;;;16.18;69.96
57600;BME280;43426;43.594;24.334;2024-03-29T06:35:40;101177.94;;;16.72;69.99
57600;BME280;43426;43.594;24.334;2024-03-29T06:38:05;101174.13;;;17.01;71.19
57600;BME280;43426;43.594;24.334;2024-03-29T06:40:31;101194.75;;;17.10;63.34
57600;BME280;43426;43.594;24.334;2024-03-29T06:42:56;101176.13;;;17.27;61.60
57600;BME280;43426;43.594;24.334;2024-03-29T06:45:23;101179.78;;;17.61;59.21
57600;BME280;43426;43.594;24.334;2024-03-29T06:47:48;101198.72;;;17.90;57.13
57600;BME280;43426;43.594;24.334;2024-03-29T06:50:14;101197.91;;;18.09;58.28
57600;BME280;43426;43.594;24.334;2024-03-29T06:52:39;101197.91;;;18.23;57.00
57600;BME280;43426;43.594;24.334;2024-03-29T06:55:05;101192.03;;;18.12;56.81
57600;BME280;43426;43.594;24.334;2024-03-29T06:57:30;101200.66;;;18.16;56.89
57600;BME280;43426;43.594;24.334;2024-03-29T06:59:57;101182.19;;;18.11;56.65
57600;BME280;43426;43.594;24.334;2024-03-29T07:02:23;101176.91;;;18.23;58.33
57600;BME280;43426;43.594;24.334;2024-03-29T07:04:49;101197.06;;;18.55;58.78
57600;BME280;43426;43.594;24.334;2024-03-29T07:07:14;101203.50;;;18.95;54.68
57600;BME280;43426;43.594;24.334;2024-03-29T07:09:40;101189.00;;;18.81;60.33
57600;BME280;43426;43.594;24.334;2024-03-29T07:12:05;101199.50;;;18.84;57.42
57600;BME280;43426;43.594;24.334;2024-03-29T07:14:31;101208.31;;;18.93;57.98
57600;BME280;43426;43.594;24.334;2024-03-29T07:16:58;101212.06;;;19.05;56.25
57600;BME280;43426;43.594;24.334;2024-03-29T07:19:24;101211.97;;;19.32;56.41
57600;BME280;43426;43.594;24.334;2024-03-29T07:21:49;101207.63;;;19.56;55.51
57600;BME280;43426;43.594;24.334;2024-03-29T07:24:18;101211.34;;;19.68;54.26
57600;BME280;43426;43.594;24.334;2024-03-29T07:26:44;101192.69;;;19.90;52.29
57600;BME280;43426;43.594;24.334;2024-03-29T07:29:10;101207.72;;;20.13;52.60
57600;BME280;43426;43.594;24.334;2024-03-29T07:31:35;101202.66;;;20.10;51.96
57600;BME280;43426;43.594;24.334;2024-03-29T07:34:01;101213.78;;;20.40;50.82
57600;BME280;43426;43.594;24.334;2024-03-29T07:36:27;101203.06;;;20.83;51.30
57600;BME280;43426;43.594;24.334;2024-03-29T07:39:00;101210.50;;;21.13;49.05
57600;BME280;43426;43.594;24.334;2024-03-29T07:41:25;101172.06;;;21.13;50.38
57600;BME280;43426;43.594;24.334;2024-03-29T07:43:55;101190.63;;;21.78;48.11
57600;BME280;43426;43.594;24.334;2024-03-29T07:46:31;101170.72;;;22.06;49.56
57600;BME280;43426;43.594;24.334;2024-03-29T07:48:57;101187.63;;;22.34;47.65
57600;BME280;43426;43.594;24.334;2024-03-29T07:51:22;101202.31;;;22.75;45.42
57600;BME280;43426;43.594;24.334;2024-03-29T07:53:48;101208.47;;;23.06;45.88
57600;BME280;43426;43.594;24.334;2024-03-29T07:56:14;101211.03;;;23.36;43.08
57600;BME280;43426;43.594;24.334;2024-03-29T07:58:39;101210.38;;;23.29;44.99
57600;BME280;43426;43.594;24.334;2024-03-29T08:01:05;101184.34;;;23.37;45.22
57600;BME280;43426;43.594;24.334;2024-03-29T08:03:31;101203.03;;;23.63;45.13
57600;BME280;43426;43.594;24.334;2024-03-29T08:06:00;101188.75;;;23.67;45.10
57600;BME280;43426;43.594;24.334;2024-03-29T08:08:29;101196.69;;;23.80;42.47
57600;BME280;43426;43.594;24.334;2024-03-29T08:10:55;101201.97;;;23.82;38.31
57600;BME280;43426;43.594;24.334;2024-03-29T08:13:21;101216.88;;;23.97;38.93
57600;BME280;43426;43.594;24.334;2024-03-29T08:15:47;101208.19;;;24.06;37.92
57600;BME280;43426;43.594;24.334;2024-03-29T08:18:13;101192.47;;;23.89;37.93
57600;BME280;43426;43.594;24.334;2024-03-29T08:20:39;101208.59;;;24.14;38.82
57600;BME280;43426;43.594;24.334;2024-03-29T08:23:04;101188.81;;;24.18;38.51
57600;BME280;43426;43.594;24.334;2024-03-29T08:25:30;101189.38;;;24.20;37.09
57600;BME280;43426;43.594;24.334;2024-03-29T08:27:55;101212.38;;;24.25;35.46
57600;BME280;43426;43.594;24.334;2024-03-29T08:30:26;101223.81;;;24.51;36.09
57600;BME280;43426;43.594;24.334;2024-03-29T08:32:56;101206.34;;;24.45;35.19
57600;BME280;43426;43.594;24.334;2024-03-29T08:35:22;101219.63;;;24.48;33.45
57600;BME280;43426;43.594;24.334;2024-03-29T08:37:48;101184.69;;;24.20;33.93
57600;BME280;43426;43.594;24.334;2024-03-29T08:40:15;101207.34;;;24.56;33.90
57600;BME280;43426;43.594;24.334;2024-03-29T08:42:41;101196.81;;;24.92;32.88
57600;BME280;43426;43.594;24.334;2024-03-29T08:45:07;101217.97;;;25.09;31.91
57600;BME280;43426;43.594;24.334;2024-03-29T08:47:34;101183.72;;;25.05;35.67
57600;BME280;43426;43.594;24.334;2024-03-29T08:49:59;101208.38;;;25.33;29.77
57600;BME280;43426;43.594;24.334;2024-03-29T08:52:25;101199.69;;;25.47;32.11
57600;BME280;43426;43.594;24.334;2024-03-29T08:54:50;101188.09;;;25.50;30.75
57600;BME280;43426;43.594;24.334;2024-03-29T08:57:16;101191.66;;;25.73;32.94
57600;BME280;43426;43.594;24.334;2024-03-29T08:59:41;101207.97;;;26.02;34.04
57600;BME280;43426;43.594;24.334;2024-03-29T09:02:07;101195.06;;;26.12;30.10
57600;BME280;43426;43.594;24.334;2024-03-29T09:04:33;101189.91;;;25.94;29.09
57600;BME280;43426;43.594;24.334;2024-03-29T09:07:00;101186.41;;;25.76;30.33
57600;BME280;43426;43.594;24.334;2024-03-29T09:09:27;101206.38;;;26.11;30.13
57600;BME280;43426;43.594;24.334;2024-03-29T09:11:53;101187.97;;;25.94;31.22
57600;BME280;43426;43.594;24.334;2024-03-29T09:14:20;101195.13;;;25.90;29.79
57600;BME280;43426;43.594;24.334;2024-03-29T09:16:45;101174.63;;;25.86;31.95
57600;BME280;43426;43.594;24.334;2024-03-29T09:19:13;101171.38;;;25.94;29.81
57600;BME280;43426;43.594;24.334;2024-03-29T09:21:39;101179.53;;;25.79;31.01
57600;BME280;43426;43.594;24.334;2024-03-29T09:24:05;101192.78;;;26.04;30.70
57600;BME280;43426;43.594;24.334;2024-03-29T09:26:32;101200.63;;;25.85;29.39
57600;BME280;43426;43.594;24.334;2024-03-29T09:28:58;101183.25;;;25.62;30.37
57600;BME280;43426;43.594;24.334;2024-03-29T09:31:23;101180.50;;;25.62;29.38
57600;BME280;43426;43.594;24.334;2024-03-29T09:33:49;101179.47;;;25.74;29.91
57600;BME280;43426;43.594;24.334;2024-03-29T09:36:21;101182.75;;;25.98;29.56
57600;BME280;43426;43.594;24.334;2024-03-29T09:38:50;101155.41;;;26.02;29.71
57600;BME280;43426;43.594;24.334;2024-03-29T09:41:17;101171.50;;;26.05;29.05
57600;BME280;43426;43.594;24.334;2024-03-29T09:43:47;101147.59;;;25.93;30.85
57600;BME280;43426;43.594;24.334;2024-03-29T09:46:14;101167.97;;;26.14;28.83
57600;BME280;43426;43.594;24.334;2024-03-29T09:48:42;101149.44;;;26.15;31.12
57600;BME280;43426;43.594;24.334;2024-03-29T09:51:11;101136.91;;;26.45;29.43
57600;BME280;43426;43.594;24.334;2024-03-29T09:53:41;101156.75;;;26.31;29.63
57600;BME280;43426;43.594;24.334;2024-03-29T09:56:07;101136.69;;;26.09;30.55
57600;BME280;43426;43.594;24.334;2024-03-29T09:58:33;101152.75;;;26.12;29.36
57600;BME280;43426;43.594;24.334;2024-03-29T10:01:00;101149.75;;;26.24;28.86
57600;BME280;43426;43.594;24.334;2024-03-29T10:03:29;101150.63;;;26.24;30.10
57600;BME280;43426;43.594;24.334;2024-03-29T10:05:58;101133.69;;;26.15;30.01
57600;BME280;43426;43.594;24.334;2024-03-29T10:08:29;101170.16;;;26.55;28.52
57600;BME280;43426;43.594;24.334;2024-03-29T10:10:57;101160.94;;;26.39;30.25
57600;BME280;43426;43.594;24.334;2024-03-29T10:13:23;101173.88;;;26.28;29.20
57600;BME280;43426;43.594;24.334;2024-03-29T10:15:53;101168.53;;;26.16;30.27
57600;BME280;43426;43.594;24.334;2024-03-29T10:18:21;101152.38;;;26.41;30.30
57600;BME280;43426;43.594;24.334;2024-03-29T10:20:47;101164.94;;;26.59;30.38
57600;BME280;43426;43.594;24.334;2024-03-29T10:23:14;101178.00;;;26.68;29.75
57600;BME280;43426;43.594;24.334;2024-03-29T10:25:39;101184.19;;;26.81;29.43
57600;BME280;43426;43.594;24.334;2024-03-29T10:28:05;101175.28;;;26.74;28.83
57600;BME280;43426;43.594;24.334;2024-03-29T10:30:31;101133.13;;;26.66;30.43
57600;BME280;43426;43.594;24.334;2024-03-29T10:32:56;101161.31;;;27.22;29.31
57600;BME280;43426;43.594;24.334;2024-03-29T10:35:25;101176.66;;;27.45;29.99
57600;BME280;43426;43.594;24.334;2024-03-29T10:37:54;101155.56;;;27.39;27.80
57600;BME280;43426;43.594;24.334;2024-03-29T10:40:21;101157.00;;;27.77;29.42
57600;BME280;43426;43.594;24.334;2024-03-29T10:42:48;101163.66;;;27.81;27.23
57600;BME280;43426;43.594;24.334;2024-03-29T10:45:14;101150.91;;;27.91;29.06
57600;BME280;43426;43.594;24.334;2024-03-29T10:47:43;101158.66;;;27.99;28.17
57600;BME280;43426;43.594;24.334;2024-03-29T10:50:12;101161.97;;;27.55;28.04
57600;BME280;43426;43.594;24.334;2024-03-29T10:52:42;101145.34;;;27.65;28.89
57600;BME280;43426;43.594;24.334;2024-03-29T10:55:11;101134.25;;;27.85;28.85
57600;BME280;43426;43.594;24.334;2024-03-29T10:57:41;101159.50;;;27.99;27.88
57600;BME280;43426;43.594;24.334;2024-03-29T11:00:15;101140.09;;;27.74;28.65
57600;BME280;43426;43.594;24.334;2024-03-29T11:05:28;101151.44;;;27.93;27.64
57600;BME280;43426;43.594;24.334;2024-03-29T11:07:55;101146.19;;;27.86;27.90
57600;BME280;43426;43.594;24.334;2024-03-29T11:13:01;101146.75;;;27.88;28.55
57600;BME280;43426;43.594;24.334;2024-03-29T11:15:30;101144.25;;;28.12;29.47
57600;BME280;43426;43.594;24.334;2024-03-29T11:17:56;101129.78;;;28.36;28.20
57600;BME280;43426;43.594;24.334;2024-03-29T11:20:24;101130.50;;;28.73;28.27
57600;BME280;43426;43.594;24.334;2024-03-29T11:22:59;101143.56;;;28.72;26.73
57600;BME280;43426;43.594;24.334;2024-03-29T11:25:38;101130.06;;;28.24;26.54
57600;BME280;43426;43.594;24.334;2024-03-29T11:28:08;101113.91;;;28.52;27.79
57600;BME280;43426;43.594;24.334;2024-03-29T11:30:45;101109.06;;;28.88;27.73
57600;BME280;43426;43.594;24.334;2024-03-29T11:35:52;101119.00;;;29.45;26.72
57600;BME280;43426;43.594;24.334;2024-03-29T11:38:18;101108.66;;;29.50;25.35
57600;BME280;43426;43.594;24.334;2024-03-29T11:41:15;101109.97;;;29.24;25.76
57600;BME280;43426;43.594;24.334;2024-03-29T11:43:39;101099.56;;;28.95;24.98
57600;BME280;43426;43.594;24.334;2024-03-29T11:46:10;101098.78;;;28.84;25.93
57600;BME280;43426;43.594;24.334;2024-03-29T11:48:36;101126.72;;;28.43;25.35
57600;BME280;43426;43.594;24.334;2024-03-29T11:51:12;101104.16;;;28.54;27.29
57600;BME280;43426;43.594;24.334;2024-03-29T11:53:40;101120.13;;;28.94;26.32
57600;BME280;43426;43.594;24.334;2024-03-29T11:56:06;101122.75;;;28.69;25.88
57600;BME280;43426;43.594;24.334;2024-03-29T11:58:33;101096.72;;;28.50;26.22
57600;BME280;43426;43.594;24.334;2024-03-29T12:01:00;101111.41;;;28.56;25.64
57600;BME280;43426;43.594;24.334;2024-03-29T12:03:27;101080.13;;;28.19;26.49
57600;BME280;43426;43.594;24.334;2024-03-29T12:05:55;101107.81;;;28.40;27.35
57600;BME280;43426;43.594;24.334;2024-03-29T12:08:33;101088.63;;;28.64;25.92
57600;BME280;43426;43.594;24.334;2024-03-29T12:10:59;101108.69;;;29.00;25.47
57600;BME280;43426;43.594;24.334;2024-03-29T12:13:25;101090.06;;;28.46;27.01
57600;BME280;43426;43.594;24.334;2024-03-29T12:15:51;101094.44;;;28.62;27.05
57600;BME280;43426;43.594;24.334;2024-03-29T12:18:19;101065.06;;;28.51;26.56
57600;BME280;43426;43.594;24.334;2024-03-29T12:20:45;101091.16;;;28.50;25.77
57600;BME280;43426;43.594;24.334;2024-03-29T12:23:12;101097.91;;;28.13;27.02
57600;BME280;43426;43.594;24.334;2024-03-29T12:25:40;101079.47;;;28.58;25.96
57600;BME280;43426;43.594;24.334;2024-03-29T12:28:06;101105.34;;;29.03;25.57
57600;BME280;43426;43.594;24.334;2024-03-29T12:30:33;101105.50;;;28.73;24.73
57600;BME280;43426;43.594;24.334;2024-03-29T12:33:08;101089.44;;;28.69;25.72
57600;BME280;43426;43.594;24.334;2024-03-29T12:35:35;101068.59;;;28.67;25.89
57600;BME280;43426;43.594;24.334;2024-03-29T12:38:03;101064.13;;;28.76;26.94
57600;BME280;43426;43.594;24.334;2024-03-29T12:40:32;101076.84;;;28.82;26.75
57600;BME280;43426;43.594;24.334;2024-03-29T12:43:03;101090.91;;;29.01;25.99
57600;BME280;43426;43.594;24.334;2024-03-29T12:45:30;101078.50;;;29.33;26.23